createdAt,value
2023-04-04T00:00:34.907Z,1.05
2023-04-04T00:03:02.245Z,1.50
2023-04-04T00:05:29.335Z,0.90
2023-04-04T00:07:56.659Z,1.05
2023-04-04T00:10:23.981Z,1.30
2023-04-04T00:12:50.970Z,1.17
2023-04-04T00:15:18.054Z,1.00
2023-04-04T00:17:45.034Z,0.88
2023-04-04T00:20:12.128Z,0.82
2023-04-04T00:22:39.105Z,0.90
2023-04-04T00:25:06.453Z,1.17
2023-04-04T00:27:33.429Z,1.13
2023-04-04T00:30:00.549Z,1.20
2023-04-04T00:32:27.745Z,0.95
2023-04-04T00:34:54.994Z,1.17
2023-04-04T00:37:22.111Z,0.80
2023-04-04T00:39:50.018Z,1.27
2023-04-04T00:42:17.964Z,1.20
2023-04-04T00:44:45.493Z,1.20
2023-04-04T00:47:13.025Z,1.30
2023-04-04T00:49:40.215Z,0.90
2023-04-04T00:52:08.140Z,1.33
2023-04-04T00:54:36.251Z,1.30
2023-04-04T00:57:08.202Z,1.13
2023-04-04T00:59:36.273Z,1.48
2023-04-04T01:02:04.142Z,1.00
2023-04-04T01:04:31.672Z,1.10
2023-04-04T01:06:59.855Z,1.15
2023-04-04T01:09:27.853Z,1.80
2023-04-04T01:11:56.807Z,1.23
2023-04-04T01:14:25.406Z,2.15
2023-04-04T01:16:53.065Z,1.17
2023-04-04T01:19:35.109Z,1.08
2023-04-04T01:22:08.528Z,1.30
2023-04-04T01:24:36.723Z,1.00
2023-04-04T01:27:05.544Z,1.10
2023-04-04T01:29:36.908Z,1.05
2023-04-04T01:32:41.182Z,1.42
2023-04-04T01:36:04.641Z,1.10
2023-04-04T01:38:54.587Z,1.25
2023-04-04T01:41:25.038Z,1.20
2023-04-04T01:43:57.307Z,1.60
2023-04-04T01:46:25.369Z,1.75
2023-04-04T01:48:53.677Z,1.17
2023-04-04T01:51:24.863Z,1.23
2023-04-04T01:53:53.055Z,1.63
2023-04-04T01:56:20.073Z,1.75
2023-04-04T01:58:47.386Z,1.40
2023-04-04T02:01:14.630Z,1.30
2023-04-04T02:03:41.666Z,1.77
2023-04-04T02:06:09.177Z,1.52
2023-04-04T02:08:36.382Z,1.30
2023-04-04T02:11:04.404Z,1.20
2023-04-04T02:13:31.794Z,1.35
2023-04-04T02:16:00.988Z,1.38
2023-04-04T02:18:28.372Z,1.23
2023-04-04T02:20:57.475Z,1.40
2023-04-04T02:23:24.576Z,2.50
2023-04-04T02:25:51.814Z,1.50
2023-04-04T02:28:19.614Z,2.22
2023-04-04T02:30:48.303Z,1.33
2023-04-04T02:33:15.730Z,1.60
2023-04-04T02:35:42.891Z,1.85
2023-04-04T02:38:10.023Z,1.60
2023-04-04T02:40:42.857Z,1.13
2023-04-04T02:43:10.406Z,1.95
2023-04-04T02:45:38.445Z,1.52
2023-04-04T02:48:17.245Z,1.50
2023-04-04T02:50:48.036Z,1.92
2023-04-04T02:53:15.994Z,1.83
2023-04-04T02:55:44.171Z,1.58
2023-04-04T02:58:11.221Z,2.20
2023-04-04T03:00:38.629Z,1.90
2023-04-04T03:03:06.268Z,2.25
2023-04-04T03:05:38.621Z,1.83
2023-04-04T03:08:05.815Z,2.30
2023-04-04T03:10:32.841Z,1.63
2023-04-04T03:12:59.971Z,2.17
2023-04-04T03:15:29.162Z,1.75
2023-04-04T03:17:56.851Z,2.25
2023-04-04T03:20:27.197Z,2.15
2023-04-04T03:22:54.302Z,1.92
2023-04-04T03:25:21.332Z,1.60
2023-04-04T03:27:48.285Z,2.10
2023-04-04T03:30:22.066Z,3.10
2023-04-04T03:32:50.911Z,1.98
2023-04-04T03:35:18.082Z,1.70
2023-04-04T03:37:45.108Z,2.17
2023-04-04T03:40:12.663Z,1.63
2023-04-04T03:42:39.846Z,2.28
2023-04-04T03:45:10.831Z,2.63
2023-04-04T03:47:39.239Z,1.90
2023-04-04T03:50:07.308Z,1.92
2023-04-04T03:52:40.557Z,1.63
2023-04-04T03:55:08.314Z,2.20
2023-04-04T03:57:36.220Z,2.10
2023-04-04T04:00:05.858Z,2.05
2023-04-04T04:02:39.562Z,2.08
2023-04-04T04:05:07.974Z,2.53
2023-04-04T04:07:34.956Z,2.13
2023-04-04T04:10:02.019Z,2.90
2023-04-04T04:12:28.982Z,2.65
2023-04-04T04:14:56.304Z,2.20
2023-04-04T04:17:23.334Z,2.20
2023-04-04T04:19:50.490Z,2.47
2023-04-04T04:22:18.531Z,2.22
2023-04-04T04:24:45.523Z,2.17
2023-04-04T04:27:12.994Z,2.40
2023-04-04T04:29:39.989Z,2.67
2023-04-04T04:32:07.750Z,2.50
2023-04-04T04:34:40.176Z,3.15
2023-04-04T04:37:07.199Z,3.17
2023-04-04T04:39:43.278Z,3.80
2023-04-04T04:42:21.388Z,2.20
2023-04-04T04:44:54.263Z,2.83
2023-04-04T04:47:22.797Z,3.47
2023-04-04T04:49:50.251Z,2.85
2023-04-04T04:52:22.777Z,2.60
2023-04-04T04:54:51.056Z,2.55
2023-04-04T04:57:18.390Z,3.45
2023-04-04T04:59:45.644Z,2.20
2023-04-04T05:02:14.294Z,2.25
2023-04-04T05:04:45.344Z,2.13
2023-04-04T05:07:14.744Z,3.03
2023-04-04T05:09:44.879Z,2.80
2023-04-04T05:12:13.201Z,3.03
2023-04-04T05:14:44.920Z,2.97
2023-04-04T05:17:12.346Z,4.22
2023-04-04T05:19:40.160Z,2.63
2023-04-04T05:22:08.304Z,3.90
2023-04-04T05:24:43.744Z,3.10
2023-04-04T05:27:15.051Z,2.60
2023-04-04T05:29:48.338Z,2.22
2023-04-04T05:32:16.256Z,3.05
2023-04-04T05:34:49.940Z,2.55
2023-04-04T05:37:20.068Z,3.05
2023-04-04T05:39:49.888Z,4.03
2023-04-04T05:42:18.559Z,3.67
2023-04-04T05:44:51.916Z,3.53
2023-04-04T05:47:22.051Z,3.17
2023-04-04T05:49:49.869Z,3.13
2023-04-04T05:52:17.130Z,2.80
2023-04-04T05:54:44.647Z,3.42
2023-04-04T05:57:17.437Z,2.80
2023-04-04T05:59:52.600Z,2.90
2023-04-04T06:02:19.877Z,3.10
2023-04-04T06:04:51.574Z,4.35
2023-04-04T06:09:54.257Z,2.63
2023-04-04T06:12:21.770Z,2.67
2023-04-04T06:14:49.024Z,3.13
2023-04-04T06:17:20.123Z,2.72
2023-04-04T06:19:47.552Z,2.78
2023-04-04T06:22:16.090Z,2.80
2023-04-04T06:24:47.540Z,2.70
2023-04-04T06:27:15.155Z,2.33
2023-04-04T06:29:42.854Z,2.67
2023-04-04T06:32:10.246Z,2.35
2023-04-04T06:34:41.066Z,3.03
2023-04-04T06:37:09.591Z,2.60
2023-04-04T06:39:44.897Z,3.20
2023-04-04T06:42:21.353Z,3.40
2023-04-04T06:44:51.276Z,2.60
2023-04-04T06:47:21.433Z,2.80
2023-04-04T06:49:48.920Z,2.70
2023-04-04T06:52:17.611Z,2.88
2023-04-04T06:54:44.787Z,3.05
2023-04-04T06:57:12.144Z,3.03
2023-04-04T06:59:39.406Z,2.72
2023-04-04T07:02:06.477Z,4.45
2023-04-04T07:04:35.218Z,3.75
2023-04-04T07:07:02.795Z,3.80
2023-04-04T07:09:32.247Z,3.72
2023-04-04T07:11:59.229Z,3.70
2023-04-04T07:14:26.295Z,3.88
2023-04-04T07:16:53.853Z,3.15
2023-04-04T07:19:24.179Z,3.45
2023-04-04T07:21:51.431Z,3.83
2023-04-04T07:24:18.444Z,3.70
2023-04-04T07:26:45.794Z,4.60
2023-04-04T07:29:13.321Z,4.25
2023-04-04T07:31:40.671Z,3.60
2023-04-04T07:34:08.136Z,3.95
2023-04-04T07:36:38.114Z,2.80
2023-04-04T07:39:05.235Z,3.67
2023-04-04T07:41:32.535Z,3.35
2023-04-04T07:43:59.535Z,3.58
2023-04-04T07:46:28.058Z,4.47
2023-04-04T07:48:55.673Z,3.67
2023-04-04T07:51:29.451Z,3.20
2023-04-04T07:53:57.187Z,3.42
2023-04-04T07:56:24.511Z,3.25
2023-04-04T07:58:51.648Z,3.33
2023-04-04T08:01:18.862Z,3.63
2023-04-04T08:03:46.659Z,3.17
2023-04-04T08:06:14.144Z,3.22
2023-04-04T08:08:41.976Z,3.17
2023-04-04T08:11:09.144Z,2.90
2023-04-04T08:13:36.199Z,3.38
2023-04-04T08:16:03.659Z,2.88
2023-04-04T08:18:30.743Z,2.47
2023-04-04T08:20:58.023Z,2.63
2023-04-04T08:23:25.604Z,3.33
2023-04-04T08:25:52.613Z,1.88
2023-04-04T08:28:19.780Z,2.00
2023-04-04T08:30:47.430Z,2.08
2023-04-04T08:33:14.640Z,2.38
2023-04-04T08:35:42.167Z,1.85
2023-04-04T08:38:09.359Z,1.85
2023-04-04T08:40:38.563Z,1.52
2023-04-04T08:43:06.693Z,2.30
2023-04-04T08:45:35.944Z,2.40
2023-04-04T08:48:05.270Z,2.75
2023-04-04T08:50:33.992Z,2.47
2023-04-04T08:53:04.797Z,1.52
2023-04-04T08:55:32.751Z,1.40
2023-04-04T08:57:59.763Z,2.03
2023-04-04T09:00:26.958Z,1.65
2023-04-04T09:03:24.409Z,1.83
2023-04-04T09:08:19.441Z,1.38
2023-04-04T09:10:48.122Z,1.48
2023-04-04T09:13:16.835Z,1.40
2023-04-04T09:15:51.754Z,1.48
2023-04-04T09:18:19.259Z,1.52
2023-04-04T09:20:48.020Z,1.15
2023-04-04T09:23:21.011Z,0.93
2023-04-04T09:28:23.650Z,1.10
2023-04-04T09:30:52.146Z,1.40
2023-04-04T09:33:21.974Z,1.40
2023-04-04T09:36:05.389Z,1.02
2023-04-04T09:38:32.536Z,2.38
2023-04-04T09:40:59.787Z,1.15
2023-04-04T09:43:29.206Z,1.73
2023-04-04T09:45:56.523Z,1.40
2023-04-04T09:48:53.220Z,1.30
2023-04-04T09:53:51.871Z,1.30
2023-04-04T09:56:19.548Z,1.75
2023-04-04T09:59:02.620Z,1.75
2023-04-04T10:01:31.469Z,1.02
2023-04-04T10:03:58.762Z,1.40
2023-04-04T10:06:26.862Z,1.60
2023-04-04T10:08:54.031Z,1.45
2023-04-04T10:11:36.167Z,1.25
2023-04-04T10:14:06.808Z,1.58
2023-04-04T10:16:37.926Z,1.65
2023-04-04T10:19:09.276Z,1.55
2023-04-04T10:21:36.801Z,1.75
2023-04-04T10:24:09.493Z,1.30
2023-04-04T10:26:39.292Z,1.70
2023-04-04T10:29:06.950Z,1.85
2023-04-04T10:31:35.159Z,1.20
2023-04-04T10:34:32.780Z,1.52
2023-04-04T10:37:10.764Z,1.60
2023-04-04T10:40:10.534Z,1.50
2023-04-04T10:42:46.980Z,1.40
2023-04-04T10:45:21.062Z,1.40
2023-04-04T10:47:49.492Z,1.88
2023-04-04T10:50:16.928Z,1.67
2023-04-04T10:52:45.864Z,1.27
2023-04-04T10:55:15.020Z,1.50
2023-04-04T10:57:46.303Z,1.77
2023-04-04T11:00:19.402Z,1.77
2023-04-04T11:02:58.430Z,1.40
2023-04-04T11:05:46.744Z,1.45
2023-04-04T11:08:22.154Z,1.92
2023-04-04T11:10:51.671Z,1.40
2023-04-04T11:13:22.808Z,1.83
2023-04-04T11:16:08.213Z,1.63
2023-04-04T11:18:47.120Z,1.38
2023-04-04T11:21:27.947Z,1.45
2023-04-04T11:24:13.637Z,1.55
2023-04-04T11:26:43.247Z,1.80
2023-04-04T11:29:14.373Z,1.50
2023-04-04T11:31:45.723Z,2.00
2023-04-04T11:34:15.279Z,2.10
2023-04-04T11:36:43.164Z,2.13
2023-04-04T11:39:15.581Z,1.90
2023-04-04T11:42:08.379Z,1.40
2023-04-04T11:44:59.843Z,2.30
2023-04-04T11:47:26.888Z,1.48
2023-04-04T11:49:57.593Z,1.58
2023-04-04T11:52:25.575Z,2.90
2023-04-04T11:54:52.912Z,2.03
2023-04-04T11:57:22.528Z,1.92
2023-04-04T11:59:52.347Z,3.10
2023-04-04T12:02:34.390Z,2.03
2023-04-04T12:05:01.754Z,1.30
2023-04-04T12:07:29.775Z,1.73
2023-04-04T12:09:57.869Z,2.00
2023-04-04T12:12:27.728Z,1.52
2023-04-04T12:15:06.260Z,1.90
2023-04-04T12:17:43.501Z,2.20
2023-04-04T12:20:11.298Z,1.90
2023-04-04T12:22:39.742Z,1.58
2023-04-04T12:25:07.714Z,1.63
2023-04-04T12:27:34.979Z,1.70
2023-04-04T12:30:04.405Z,1.85
2023-04-04T12:32:32.303Z,1.60
2023-04-04T12:35:03.791Z,2.10
2023-04-04T12:37:31.174Z,1.35
2023-04-04T12:39:58.514Z,1.60
2023-04-04T12:42:26.528Z,2.10
2023-04-04T12:44:54.875Z,1.73
2023-04-04T12:47:24.958Z,1.73
2023-04-04T12:49:55.094Z,2.78
2023-04-04T12:52:33.748Z,2.03
2023-04-04T12:55:10.331Z,1.60
2023-04-04T12:57:39.814Z,1.45
2023-04-04T13:00:09.099Z,1.75
2023-04-04T13:02:38.608Z,1.83
2023-04-04T13:05:07.593Z,1.60
2023-04-04T13:07:44.155Z,2.15
2023-04-04T13:10:15.202Z,1.63
2023-04-04T13:13:02.653Z,1.92
2023-04-04T13:15:52.632Z,1.85
2023-04-04T13:18:26.461Z,1.98
2023-04-04T13:20:54.671Z,1.77
2023-04-04T13:23:22.820Z,1.85
2023-04-04T13:25:50.255Z,1.40
2023-04-04T13:28:17.719Z,1.90
2023-04-04T13:30:49.460Z,1.60
2023-04-04T13:33:18.319Z,1.80
2023-04-04T13:35:46.659Z,1.98
2023-04-04T13:38:14.213Z,1.80
2023-04-04T13:40:41.539Z,2.33
2023-04-04T13:43:11.357Z,1.38
2023-04-04T13:45:39.398Z,1.33
2023-04-04T13:48:06.762Z,1.98
2023-04-04T13:50:40.499Z,1.60
2023-04-04T13:53:07.857Z,1.50
2023-04-04T13:55:35.039Z,1.58
2023-04-04T13:58:02.285Z,2.10
2023-04-04T14:00:29.708Z,1.50
2023-04-04T14:02:58.083Z,1.73
2023-04-04T14:05:25.190Z,1.90
2023-04-04T14:07:52.545Z,1.73
2023-04-04T14:10:20.001Z,1.40
2023-04-04T14:12:47.170Z,2.00
2023-04-04T14:15:14.576Z,1.80
2023-04-04T14:17:42.648Z,1.67
2023-04-04T14:20:10.744Z,1.80
2023-04-04T14:22:37.744Z,2.53
2023-04-04T14:25:05.334Z,2.03
2023-04-04T14:27:32.445Z,1.50
2023-04-04T14:29:59.402Z,1.85
2023-04-04T14:32:27.690Z,2.35
2023-04-04T14:34:55.062Z,1.70
2023-04-04T14:37:22.261Z,1.73
2023-04-04T14:39:49.736Z,1.95
2023-04-04T14:42:16.962Z,1.60
2023-04-04T14:44:44.058Z,2.03
2023-04-04T14:47:11.327Z,2.05
2023-04-04T14:49:38.432Z,2.22
2023-04-04T14:52:05.488Z,1.83
2023-04-04T14:54:32.717Z,1.33
2023-04-04T14:56:59.709Z,1.98
2023-04-04T14:59:26.809Z,2.15
2023-04-04T15:01:54.091Z,1.92
2023-04-04T15:04:21.265Z,3.00
2023-04-04T15:06:48.562Z,1.60
2023-04-04T15:09:16.367Z,2.50
2023-04-04T15:11:43.857Z,2.28
2023-04-04T15:14:10.819Z,1.70
2023-04-04T15:16:38.572Z,2.20
2023-04-04T15:19:05.946Z,1.70
2023-04-04T15:21:32.883Z,2.10
2023-04-04T15:24:00.141Z,2.30
2023-04-04T15:26:27.562Z,1.90
2023-04-04T15:28:54.542Z,1.98
2023-04-04T15:31:21.686Z,2.40
2023-04-04T15:33:51.681Z,2.25
2023-04-04T15:36:18.994Z,2.00
2023-04-04T15:38:46.271Z,2.42
2023-04-04T15:41:13.264Z,2.53
2023-04-04T15:43:40.443Z,2.05
2023-04-04T15:46:07.516Z,2.22
2023-04-04T15:48:34.817Z,2.15
2023-04-04T15:51:03.324Z,2.05
2023-04-04T15:53:31.321Z,2.60
2023-04-04T15:55:59.653Z,2.00
2023-04-04T15:58:26.856Z,2.30
2023-04-04T16:00:55.596Z,1.83
2023-04-04T16:03:24.602Z,1.98
2023-04-04T16:05:51.837Z,1.92
2023-04-04T16:08:18.869Z,2.30
2023-04-04T16:10:46.003Z,1.85
2023-04-04T16:13:13.984Z,1.70
2023-04-04T16:15:41.276Z,2.15
2023-04-04T16:18:08.972Z,2.50
2023-04-04T16:20:36.310Z,2.03
2023-04-04T16:23:03.497Z,2.53
2023-04-04T16:25:30.645Z,3.03
2023-04-04T16:27:57.737Z,2.00
2023-04-04T16:30:24.772Z,2.13
2023-04-04T16:32:51.950Z,1.90
2023-04-04T16:35:19.317Z,2.15
2023-04-04T16:37:46.359Z,2.53
2023-04-04T16:40:14.812Z,2.50
2023-04-04T16:42:42.900Z,2.10
2023-04-04T16:45:11.339Z,1.90
2023-04-04T16:47:38.797Z,2.17
2023-04-04T16:50:07.760Z,2.33
2023-04-04T16:52:34.928Z,2.10
2023-04-04T16:55:02.058Z,2.78
2023-04-04T16:57:29.048Z,2.28
2023-04-04T16:59:56.420Z,1.95
2023-04-04T17:02:23.478Z,2.65
2023-04-04T17:04:52.303Z,2.40
2023-04-04T17:07:21.248Z,2.15
2023-04-04T17:09:48.937Z,2.47
2023-04-04T17:12:16.337Z,1.88
2023-04-04T17:14:44.164Z,2.55
2023-04-04T17:17:11.623Z,1.83
2023-04-04T17:19:38.804Z,2.28
2023-04-04T17:22:06.108Z,2.75
2023-04-04T17:24:33.520Z,2.05
2023-04-04T17:27:01.958Z,2.92
2023-04-04T17:29:29.396Z,3.38
2023-04-04T17:31:57.829Z,2.00
2023-04-04T17:34:25.814Z,2.45
2023-04-04T17:36:53.891Z,2.10
2023-04-04T17:39:21.780Z,2.00
2023-04-04T17:41:49.526Z,2.10
2023-04-04T17:44:17.464Z,2.08
2023-04-04T17:46:46.279Z,2.40
2023-04-04T17:49:19.733Z,2.75
2023-04-04T17:51:48.944Z,2.00
2023-04-04T17:54:16.176Z,2.50
2023-04-04T17:56:46.977Z,2.20
2023-04-04T17:59:15.801Z,3.15
2023-04-04T18:01:43.238Z,1.63
2023-04-04T18:04:10.717Z,2.10
2023-04-04T18:06:40.148Z,2.50
2023-04-04T18:09:10.123Z,1.98
2023-04-04T18:11:37.437Z,3.15
2023-04-04T18:14:04.668Z,2.50
2023-04-04T18:16:39.759Z,2.13
2023-04-04T18:19:11.230Z,2.28
2023-04-04T18:21:38.775Z,1.98
2023-04-04T18:24:11.773Z,1.98
2023-04-04T18:26:38.928Z,1.67
2023-04-04T18:29:06.129Z,2.00
2023-04-04T18:31:33.371Z,2.88
2023-04-04T18:34:01.041Z,2.05
2023-04-04T18:36:28.150Z,2.10
2023-04-04T18:38:55.312Z,2.13
2023-04-04T18:41:22.362Z,1.65
2023-04-04T18:43:49.537Z,1.98
2023-04-04T18:46:16.599Z,2.38
2023-04-04T18:48:43.825Z,2.38
2023-04-04T18:51:13.688Z,2.20
2023-04-04T18:53:40.694Z,2.17
2023-04-04T18:56:07.834Z,1.98
2023-04-04T18:58:37.076Z,2.00
2023-04-04T19:01:04.700Z,1.77
2023-04-04T19:03:41.895Z,1.83
2023-04-04T19:06:12.616Z,1.88
2023-04-04T19:08:44.203Z,3.28
2023-04-04T19:11:12.197Z,2.50
2023-04-04T19:13:39.209Z,2.28
2023-04-04T19:16:06.575Z,1.98
2023-04-04T19:18:33.586Z,2.00
2023-04-04T19:21:00.550Z,1.73
2023-04-04T19:23:27.845Z,1.40
2023-04-04T19:25:55.918Z,1.92
2023-04-04T19:28:23.014Z,2.10
2023-04-04T19:30:50.305Z,2.03
2023-04-04T19:33:21.633Z,1.67
2023-04-04T19:35:56.568Z,2.08
2023-04-04T19:38:32.394Z,1.63
2023-04-04T19:43:30.078Z,1.85
2023-04-04T19:45:59.393Z,1.80
2023-04-04T19:48:57.442Z,2.17
2023-04-04T19:51:24.517Z,1.95
2023-04-04T19:53:53.548Z,1.50
2023-04-04T19:56:22.842Z,1.95
2023-04-04T19:58:58.761Z,1.73
2023-04-04T20:01:31.885Z,1.20
2023-04-04T20:04:10.237Z,1.83
2023-04-04T20:06:38.824Z,2.38
2023-04-04T20:09:13.228Z,1.80
2023-04-04T20:11:40.412Z,2.00
2023-04-04T20:14:09.931Z,2.35
2023-04-04T20:16:37.519Z,2.15
2023-04-04T20:19:06.853Z,3.00
2023-04-04T20:21:35.791Z,2.47
2023-04-04T20:24:11.121Z,2.30
2023-04-04T20:27:00.042Z,2.92
2023-04-04T20:29:32.890Z,2.78
2023-04-04T20:32:09.699Z,2.67
2023-04-04T20:34:49.817Z,2.28
2023-04-04T20:37:26.084Z,2.47
2023-04-04T20:39:59.280Z,2.20
2023-04-04T20:42:26.173Z,1.48
2023-04-04T20:44:54.500Z,1.67
2023-04-04T20:47:43.911Z,1.35
2023-04-04T20:50:22.494Z,1.27
2023-04-04T20:52:53.028Z,1.70
2023-04-04T20:55:22.780Z,1.52
2023-04-04T20:57:55.044Z,1.85
2023-04-04T21:00:34.080Z,1.95
2023-04-04T21:03:09.506Z,1.65
2023-04-04T21:05:39.949Z,1.83
2023-04-04T21:08:43.674Z,1.70
2023-04-04T21:11:27.222Z,2.33
2023-04-04T21:13:55.246Z,2.60
2023-04-04T21:16:27.574Z,1.70
2023-04-04T21:18:59.753Z,2.13
2023-04-04T21:21:28.987Z,2.00
2023-04-04T21:23:59.040Z,2.10
2023-04-04T21:26:29.615Z,2.28
2023-04-04T21:29:01.760Z,2.00
2023-04-04T21:31:41.041Z,1.65
2023-04-04T21:34:13.310Z,2.55
2023-04-04T21:36:41.222Z,1.80
2023-04-04T21:39:11.835Z,2.05
2023-04-04T21:41:39.607Z,2.47
2023-04-04T21:44:09.063Z,1.67
2023-04-04T21:46:42.301Z,2.05
2023-04-04T21:49:13.213Z,1.50
2023-04-04T21:51:43.105Z,1.92
2023-04-04T21:54:10.191Z,1.75
2023-04-04T21:56:38.383Z,2.70
2023-04-04T21:59:08.977Z,1.65
2023-04-04T22:01:38.067Z,1.45
2023-04-04T22:04:05.326Z,1.80
2023-04-04T22:06:32.493Z,1.48
2023-04-04T22:09:02.044Z,2.47
2023-04-04T22:11:29.872Z,1.60
2023-04-04T22:14:04.154Z,2.35
2023-04-04T22:16:37.101Z,2.13
2023-04-04T22:19:04.883Z,1.77
2023-04-04T22:21:36.869Z,1.77
2023-04-04T22:24:05.765Z,1.70
2023-04-04T22:26:33.933Z,1.38
2023-04-04T22:29:05.509Z,1.77
2023-04-04T22:31:37.572Z,1.52
2023-04-04T22:34:06.486Z,1.67
2023-04-04T22:36:34.570Z,1.88
2023-04-04T22:39:02.792Z,1.48
2023-04-04T22:41:30.009Z,1.92
2023-04-04T22:43:58.048Z,2.17
2023-04-04T22:46:26.726Z,1.70
2023-04-04T22:49:05.600Z,2.10
2023-04-04T22:51:45.795Z,2.30
2023-04-04T22:54:17.244Z,1.85
2023-04-04T22:56:44.747Z,3.15
2023-04-04T22:59:12.230Z,2.05
2023-04-04T23:01:39.451Z,2.35
2023-04-04T23:04:06.706Z,2.33
2023-04-04T23:06:34.110Z,1.88
2023-04-04T23:09:02.763Z,2.08
2023-04-04T23:11:30.493Z,2.28
2023-04-04T23:13:57.673Z,2.65
2023-04-04T23:16:26.389Z,2.05
2023-04-04T23:18:53.652Z,1.92
2023-04-04T23:21:21.993Z,2.03
2023-04-04T23:23:49.242Z,2.30
2023-04-04T23:26:16.286Z,2.25
2023-04-04T23:28:43.241Z,2.38
2023-04-04T23:31:10.595Z,2.45
2023-04-04T23:33:37.969Z,2.72
2023-04-04T23:36:05.432Z,2.22
2023-04-04T23:38:32.861Z,2.58
2023-04-04T23:40:59.818Z,2.70
2023-04-04T23:43:26.798Z,2.42
2023-04-04T23:45:54.036Z,2.33
2023-04-04T23:48:21.457Z,3.10
2023-04-04T23:50:50.124Z,2.83
2023-04-04T23:53:17.163Z,2.38
2023-04-04T23:55:44.081Z,2.20
2023-04-04T23:58:11.009Z,2.22
